VTK601 URWW-URMM
Flight info
| Callsign | VTK601 |
|---|---|
| Flight time | N/A |
| Altitude | 34000 |
| Route | TONGI2F TONGI R807 NIRGA A835 DEPSO DEPSO5A |
| Aircraft | A320/M-SDE3FGHIRWY/LB1 |
Departure
| Time | 2026-05-04 12:22 |
|---|---|
| Airport | Volgograd International Airport (URWW) |
Arrival
| Time | N/A |
|---|---|
| Airport | Mineralnye Vody Airport (URMM) |
| Time | Latitude | Longitude | Altitude | Speed | Heading |
|---|---|---|---|---|---|
| 2026-05-04 12:17 | 48.78821 | 44.34849 | 452 ft | 21 kts | 249° |
| 2026-05-04 12:17 | 48.78770 | 44.34647 | 451 ft | 20 kts | 249° |
| 2026-05-04 12:17 | 48.78723 | 44.34457 | 452 ft | 18 kts | 249° |
| 2026-05-04 12:17 | 48.78680 | 44.34283 | 452 ft | 17 kts | 249° |
| 2026-05-04 12:18 | 48.78623 | 44.34150 | 452 ft | 15 kts | 205° |
| 2026-05-04 12:18 | 48.78522 | 44.34170 | 454 ft | 17 kts | 165° |
| 2026-05-04 12:18 | 48.78410 | 44.34157 | 462 ft | 16 kts | 221° |
| 2026-05-04 12:18 | 48.78335 | 44.33955 | 454 ft | 28 kts | 244° |
| 2026-05-04 12:19 | 48.78236 | 44.33648 | 453 ft | 36 kts | 245° |
| 2026-05-04 12:19 | 48.78119 | 44.33275 | 451 ft | 42 kts | 244° |
| 2026-05-04 12:19 | 48.78032 | 44.33006 | 452 ft | 42 kts | 244° |
| 2026-05-04 12:19 | 48.77906 | 44.32605 | 451 ft | 42 kts | 244° |
| 2026-05-04 12:20 | 48.77780 | 44.32207 | 451 ft | 42 kts | 244° |
| 2026-05-04 12:20 | 48.77675 | 44.31879 | 450 ft | 24 kts | 244° |
| 2026-05-04 12:20 | 48.77586 | 44.31786 | 448 ft | 17 kts | 164° |
| 2026-05-04 12:20 | 48.77507 | 44.31922 | 432 ft | 20 kts | 81° |
| 2026-05-04 12:21 | 48.77537 | 44.32023 | 423 ft | 12 kts | 64° |
| 2026-05-04 12:21 | 48.77664 | 44.32421 | 432 ft | 78 kts | 64° |
| 2026-05-04 12:21 | 48.77986 | 44.33436 | 454 ft | 135 kts | 64° |
| 2026-05-04 12:21 | 48.78440 | 44.34845 | 916 ft | 149 kts | 64° |
| 2026-05-04 12:22 | 48.78887 | 44.36249 | 1686 ft | 151 kts | 64° |
| 2026-05-04 12:22 | 48.79364 | 44.37751 | 2154 ft | 168 kts | 64° |
| 2026-05-04 12:22 | 48.79903 | 44.39454 | 2516 ft | 190 kts | 64° |
| 2026-05-04 12:22 | 48.80507 | 44.41365 | 2878 ft | 209 kts | 63° |
| 2026-05-04 12:23 | 48.81176 | 44.43476 | 3331 ft | 235 kts | 64° |
| 2026-05-04 12:23 | 48.81907 | 44.45790 | 4023 ft | 249 kts | 64° |
| 2026-05-04 12:23 | 48.82660 | 44.48182 | 4982 ft | 253 kts | 64° |
| 2026-05-04 12:23 | 48.83428 | 44.50619 | 5977 ft | 257 kts | 64° |
| 2026-05-04 12:24 | 48.84202 | 44.53080 | 6928 ft | 260 kts | 64° |
| 2026-05-04 12:24 | 48.84986 | 44.55574 | 7812 ft | 264 kts | 64° |
| 2026-05-04 12:24 | 48.85784 | 44.58111 | 8710 ft | 268 kts | 64° |
| 2026-05-04 12:24 | 48.86594 | 44.60690 | 9632 ft | 273 kts | 64° |
| 2026-05-04 12:25 | 48.87207 | 44.63449 | 10399 ft | 282 kts | 82° |
| 2026-05-04 12:25 | 48.87015 | 44.66445 | 11057 ft | 296 kts | 106° |
| 2026-05-04 12:25 | 48.85912 | 44.69224 | 11342 ft | 324 kts | 134° |
| 2026-05-04 12:25 | 48.83929 | 44.71105 | 11581 ft | 351 kts | 155° |
| 2026-05-04 12:26 | 48.81598 | 44.72534 | 11952 ft | 368 kts | 157° |
| 2026-05-04 12:26 | 48.79182 | 44.73921 | 12645 ft | 374 kts | 158° |
| 2026-05-04 12:26 | 48.76727 | 44.75302 | 13372 ft | 379 kts | 158° |
| 2026-05-04 12:26 | 48.74251 | 44.76698 | 14113 ft | 381 kts | 159° |
| 2026-05-04 12:27 | 48.71757 | 44.78122 | 14786 ft | 384 kts | 158° |
| 2026-05-04 12:27 | 48.69246 | 44.79579 | 15425 ft | 388 kts | 158° |
| 2026-05-04 12:27 | 48.66718 | 44.81057 | 16057 ft | 392 kts | 158° |
| 2026-05-04 12:27 | 48.64148 | 44.82502 | 16646 ft | 397 kts | 163° |
| 2026-05-04 12:28 | 48.61435 | 44.83320 | 17262 ft | 399 kts | 175° |
| 2026-05-04 12:28 | 48.58692 | 44.83303 | 17869 ft | 401 kts | 187° |
| 2026-05-04 12:28 | 48.55959 | 44.82444 | 18458 ft | 402 kts | 200° |
| 2026-05-04 12:28 | 48.53385 | 44.80785 | 18993 ft | 403 kts | 209° |
| 2026-05-04 12:29 | 48.50900 | 44.78837 | 19581 ft | 403 kts | 209° |
| 2026-05-04 12:29 | 48.48406 | 44.76879 | 20142 ft | 404 kts | 209° |
| 2026-05-04 12:29 | 48.45906 | 44.74916 | 20699 ft | 406 kts | 209° |
| 2026-05-04 12:29 | 48.43396 | 44.72949 | 21235 ft | 407 kts | 209° |
| 2026-05-04 12:30 | 48.40874 | 44.70978 | 21765 ft | 409 kts | 210° |
| 2026-05-04 12:30 | 48.38343 | 44.69004 | 22291 ft | 411 kts | 210° |
| 2026-05-04 12:30 | 48.35800 | 44.67023 | 22807 ft | 413 kts | 210° |
| 2026-05-04 12:30 | 48.33247 | 44.65036 | 23314 ft | 414 kts | 210° |
| 2026-05-04 12:31 | 48.30677 | 44.63038 | 23717 ft | 417 kts | 209° |
| 2026-05-04 12:31 | 48.28084 | 44.61024 | 24047 ft | 421 kts | 209° |
| 2026-05-04 12:31 | 48.25473 | 44.59000 | 24406 ft | 424 kts | 209° |
| 2026-05-04 12:31 | 48.22847 | 44.56968 | 24773 ft | 426 kts | 209° |
| 2026-05-04 12:32 | 48.20202 | 44.54924 | 25129 ft | 429 kts | 209° |
| 2026-05-04 12:32 | 48.14872 | 44.50808 | 25879 ft | 433 kts | 209° |
| 2026-05-04 12:32 | 48.12186 | 44.48737 | 26254 ft | 434 kts | 209° |
| 2026-05-04 12:33 | 48.09492 | 44.46666 | 26592 ft | 437 kts | 208° |
| 2026-05-04 12:33 | 48.06782 | 44.44586 | 26900 ft | 439 kts | 208° |
| 2026-05-04 12:33 | 48.04055 | 44.42495 | 27236 ft | 442 kts | 208° |
| 2026-05-04 12:33 | 48.01318 | 44.40400 | 27578 ft | 443 kts | 208° |
| 2026-05-04 12:34 | 47.98563 | 44.38292 | 27906 ft | 445 kts | 208° |
| 2026-05-04 12:34 | 47.95811 | 44.36184 | 28221 ft | 446 kts | 208° |
| 2026-05-04 12:34 | 47.92985 | 44.34239 | 28524 ft | 449 kts | 202° |
| 2026-05-04 12:34 | 47.89976 | 44.32920 | 28840 ft | 452 kts | 195° |
| 2026-05-04 12:35 | 47.86924 | 44.31837 | 29277 ft | 450 kts | 195° |
| 2026-05-04 12:35 | 47.83876 | 44.30751 | 29713 ft | 449 kts | 195° |
| 2026-05-04 12:35 | 47.80842 | 44.29664 | 30145 ft | 448 kts | 195° |
| 2026-05-04 12:35 | 47.77813 | 44.28574 | 30534 ft | 446 kts | 194° |
| 2026-05-04 12:36 | 47.74807 | 44.27490 | 30973 ft | 443 kts | 194° |
| 2026-05-04 12:36 | 47.71860 | 44.26425 | 31383 ft | 441 kts | 194° |
| 2026-05-04 12:36 | 47.68882 | 44.25348 | 31765 ft | 440 kts | 194° |
| 2026-05-04 12:36 | 47.65915 | 44.24282 | 32153 ft | 438 kts | 194° |
| 2026-05-04 12:37 | 47.62959 | 44.23221 | 32510 ft | 437 kts | 194° |
| 2026-05-04 12:37 | 47.60002 | 44.22163 | 32842 ft | 437 kts | 194° |
| 2026-05-04 12:37 | 47.57044 | 44.21104 | 33198 ft | 437 kts | 194° |
| 2026-05-04 12:37 | 47.54094 | 44.20051 | 33567 ft | 436 kts | 194° |
| 2026-05-04 12:38 | 47.51146 | 44.19002 | 33914 ft | 436 kts | 194° |
| 2026-05-04 12:38 | 47.45252 | 44.16916 | 34011 ft | 435 kts | 194° |
| 2026-05-04 12:39 | 47.39356 | 44.14825 | 34010 ft | 435 kts | 194° |
| 2026-05-04 12:39 | 47.33452 | 44.12735 | 34008 ft | 437 kts | 194° |
| 2026-05-04 12:40 | 47.27572 | 44.10663 | 34010 ft | 437 kts | 194° |
| 2026-05-04 12:40 | 47.21647 | 44.08570 | 34004 ft | 438 kts | 194° |
| 2026-05-04 12:41 | 47.15724 | 44.06482 | 34001 ft | 438 kts | 194° |
| 2026-05-04 12:41 | 47.09789 | 44.04408 | 34006 ft | 438 kts | 193° |
| 2026-05-04 12:42 | 47.03861 | 44.02338 | 33992 ft | 438 kts | 193° |
| 2026-05-04 12:42 | 46.97928 | 44.00266 | 34000 ft | 438 kts | 193° |
| 2026-05-04 12:43 | 46.96494 | 43.99766 | 34001 ft | 438 kts | 193° |
| 2026-05-04 12:44 | 46.91433 | 43.98019 | 33997 ft | 438 kts | 193° |
| 2026-05-04 12:44 | 46.85503 | 43.95976 | 33995 ft | 438 kts | 193° |
| 2026-05-04 12:45 | 46.79569 | 43.93938 | 33994 ft | 438 kts | 193° |
| 2026-05-04 12:45 | 46.73638 | 43.91904 | 33989 ft | 437 kts | 193° |
| 2026-05-04 12:46 | 46.67715 | 43.89893 | 33984 ft | 437 kts | 193° |
| 2026-05-04 12:46 | 46.61789 | 43.87874 | 33983 ft | 438 kts | 192° |
| 2026-05-04 12:47 | 46.55892 | 43.85863 | 33975 ft | 439 kts | 192° |
| 2026-05-04 12:47 | 46.49949 | 43.83826 | 33977 ft | 439 kts | 192° |
| 2026-05-04 12:48 | 46.44000 | 43.81799 | 33978 ft | 439 kts | 192° |
| 2026-05-04 12:48 | 46.38051 | 43.79790 | 33987 ft | 439 kts | 192° |
| 2026-05-04 12:49 | 46.32103 | 43.77801 | 33975 ft | 438 kts | 192° |
| 2026-05-04 12:49 | 46.26153 | 43.75812 | 33971 ft | 439 kts | 192° |
| 2026-05-04 12:50 | 46.20203 | 43.73815 | 33972 ft | 439 kts | 192° |
| 2026-05-04 12:50 | 46.14246 | 43.71821 | 33976 ft | 439 kts | 191° |
| 2026-05-04 12:51 | 46.08284 | 43.69834 | 33972 ft | 440 kts | 191° |
| 2026-05-04 12:51 | 46.02313 | 43.67838 | 33972 ft | 441 kts | 191° |
| 2026-05-04 12:52 | 45.96329 | 43.65936 | 33971 ft | 440 kts | 190° |
| 2026-05-04 12:52 | 45.90323 | 43.64266 | 33981 ft | 440 kts | 189° |
| 2026-05-04 12:53 | 45.84314 | 43.62631 | 33978 ft | 440 kts | 189° |
| 2026-05-04 12:53 | 45.78343 | 43.60969 | 33971 ft | 440 kts | 189° |
| 2026-05-04 12:54 | 45.72337 | 43.59273 | 33965 ft | 440 kts | 189° |
| 2026-05-04 12:54 | 45.66324 | 43.57570 | 33952 ft | 441 kts | 189° |
| 2026-05-04 12:55 | 45.60307 | 43.55868 | 33936 ft | 441 kts | 189° |
| 2026-05-04 12:55 | 45.54272 | 43.54182 | 33947 ft | 442 kts | 189° |
| 2026-05-04 12:56 | 45.48226 | 43.52506 | 32955 ft | 441 kts | 189° |
| 2026-05-04 12:56 | 45.45233 | 43.51674 | 31937 ft | 437 kts | 189° |
| 2026-05-04 12:56 | 45.42233 | 43.50844 | 30918 ft | 442 kts | 189° |
| 2026-05-04 12:56 | 45.39241 | 43.50017 | 29885 ft | 447 kts | 189° |
| 2026-05-04 12:57 | 45.36165 | 43.49166 | 28687 ft | 451 kts | 189° |
| 2026-05-04 12:57 | 45.33069 | 43.48306 | 27479 ft | 455 kts | 190° |
| 2026-05-04 12:57 | 45.29949 | 43.47438 | 26272 ft | 458 kts | 190° |
| 2026-05-04 12:57 | 45.26805 | 43.46567 | 25072 ft | 462 kts | 190° |
| 2026-05-04 12:58 | 45.23655 | 43.45699 | 24097 ft | 460 kts | 191° |
| 2026-05-04 12:58 | 45.20533 | 43.44845 | 23145 ft | 456 kts | 191° |
| 2026-05-04 12:58 | 45.17432 | 43.43999 | 22258 ft | 450 kts | 191° |
| 2026-05-04 12:58 | 45.14374 | 43.43164 | 21445 ft | 445 kts | 191° |
| 2026-05-04 12:59 | 45.11345 | 43.42333 | 20650 ft | 440 kts | 192° |
| 2026-05-04 12:59 | 45.08421 | 43.41147 | 19866 ft | 435 kts | 201° |
| 2026-05-04 12:59 | 45.05713 | 43.39277 | 19111 ft | 431 kts | 210° |
| 2026-05-04 12:59 | 45.03140 | 43.37126 | 18383 ft | 427 kts | 210° |
| 2026-05-04 13:00 | 45.00597 | 43.35009 | 17624 ft | 422 kts | 210° |
| 2026-05-04 13:00 | 44.98116 | 43.32962 | 16962 ft | 415 kts | 210° |
| 2026-05-04 13:00 | 44.95637 | 43.30936 | 16332 ft | 409 kts | 210° |
| 2026-05-04 13:00 | 44.93193 | 43.28948 | 15733 ft | 402 kts | 210° |
| 2026-05-04 13:01 | 44.90789 | 43.26991 | 15147 ft | 396 kts | 210° |
| 2026-05-04 13:01 | 44.88420 | 43.25056 | 14582 ft | 391 kts | 210° |
| 2026-05-04 13:01 | 44.86086 | 43.23145 | 14014 ft | 386 kts | 211° |
| 2026-05-04 13:01 | 44.83779 | 43.21253 | 13404 ft | 382 kts | 211° |
| 2026-05-04 13:02 | 44.81498 | 43.19386 | 12795 ft | 377 kts | 211° |
| 2026-05-04 13:02 | 44.79240 | 43.17540 | 12194 ft | 373 kts | 211° |
| 2026-05-04 13:02 | 44.77006 | 43.15714 | 11550 ft | 370 kts | 211° |
| 2026-05-04 13:02 | 44.74791 | 43.13908 | 11059 ft | 362 kts | 211° |
| 2026-05-04 13:03 | 44.72700 | 43.12210 | 10906 ft | 331 kts | 212° |
| 2026-05-04 13:03 | 44.70787 | 43.10659 | 10775 ft | 305 kts | 211° |
| 2026-05-04 13:03 | 44.68996 | 43.09203 | 10425 ft | 291 kts | 212° |
| 2026-05-04 13:03 | 44.67243 | 43.07776 | 10191 ft | 291 kts | 212° |
| 2026-05-04 13:04 | 44.65495 | 43.06351 | 9951 ft | 290 kts | 212° |
| 2026-05-04 13:04 | 44.63748 | 43.04932 | 9931 ft | 290 kts | 212° |
| 2026-05-04 13:04 | 44.61999 | 43.03512 | 9944 ft | 291 kts | 212° |
| 2026-05-04 13:04 | 44.60243 | 43.02098 | 9947 ft | 291 kts | 209° |
| 2026-05-04 13:05 | 44.58378 | 43.00981 | 9886 ft | 292 kts | 204° |
| 2026-05-04 13:05 | 44.56479 | 42.99947 | 9728 ft | 294 kts | 204° |
| 2026-05-04 13:05 | 44.54589 | 42.98923 | 9057 ft | 293 kts | 201° |
| 2026-05-04 13:05 | 44.52702 | 42.97899 | 8387 ft | 290 kts | 200° |
| 2026-05-04 13:06 | 44.50841 | 42.96885 | 7750 ft | 285 kts | 199° |
| 2026-05-04 13:06 | 44.49004 | 42.95883 | 7086 ft | 282 kts | 199° |
| 2026-05-04 13:06 | 44.47183 | 42.94891 | 6454 ft | 279 kts | 198° |
| 2026-05-04 13:06 | 44.45393 | 42.93920 | 5813 ft | 274 kts | 197° |
| 2026-05-04 13:07 | 44.43636 | 42.92964 | 5271 ft | 265 kts | 198° |
| 2026-05-04 13:07 | 44.42034 | 42.91956 | 5182 ft | 241 kts | 206° |
| 2026-05-04 13:07 | 44.40669 | 42.90748 | 5138 ft | 227 kts | 207° |
| 2026-05-04 13:07 | 44.39334 | 42.89579 | 5084 ft | 225 kts | 207° |
| 2026-05-04 13:08 | 44.38019 | 42.88433 | 5000 ft | 222 kts | 207° |
| 2026-05-04 13:08 | 44.36689 | 42.87332 | 4769 ft | 222 kts | 199° |
| 2026-05-04 13:08 | 44.35235 | 42.86794 | 4533 ft | 212 kts | 179° |
| 2026-05-04 13:08 | 44.33784 | 42.86950 | 4381 ft | 208 kts | 161° |
| 2026-05-04 13:09 | 44.32470 | 42.87723 | 4197 ft | 204 kts | 144° |
| 2026-05-04 13:09 | 44.31412 | 42.89016 | 3965 ft | 202 kts | 127° |
| 2026-05-04 13:09 | 44.30891 | 42.90081 | 3796 ft | 199 kts | 121° |
| 2026-05-04 13:09 | 44.30171 | 42.91682 | 3559 ft | 190 kts | 120° |
| 2026-05-04 13:10 | 44.29486 | 42.93207 | 3306 ft | 179 kts | 120° |
| 2026-05-04 13:10 | 44.28853 | 42.94613 | 3066 ft | 164 kts | 119° |
| 2026-05-04 13:10 | 44.28275 | 42.95893 | 2862 ft | 148 kts | 118° |
| 2026-05-04 13:10 | 44.27756 | 42.97047 | 2661 ft | 136 kts | 118° |
| 2026-05-04 13:11 | 44.27261 | 42.98148 | 2481 ft | 132 kts | 118° |
| 2026-05-04 13:11 | 44.26777 | 42.99224 | 2290 ft | 131 kts | 119° |
| 2026-05-04 13:11 | 44.26296 | 43.00292 | 2103 ft | 129 kts | 118° |
| 2026-05-04 13:11 | 44.25816 | 43.01353 | 1916 ft | 130 kts | 118° |
| 2026-05-04 13:12 | 44.25333 | 43.02427 | 1735 ft | 131 kts | 119° |
| 2026-05-04 13:12 | 44.24850 | 43.03498 | 1541 ft | 130 kts | 117° |
| 2026-05-04 13:12 | 44.24366 | 43.04573 | 1356 ft | 131 kts | 120° |
| 2026-05-04 13:12 | 44.23880 | 43.05665 | 1176 ft | 132 kts | 120° |
| 2026-05-04 13:13 | 44.23394 | 43.06729 | 1057 ft | 121 kts | 120° |
| 2026-05-04 13:13 | 44.23026 | 43.07550 | 1052 ft | 75 kts | 123° |